createdAt,value
2023-03-16T00:01:16.496Z,22.12
2023-03-16T00:03:47.554Z,22.09
2023-03-16T00:06:18.166Z,22.07
2023-03-16T00:08:48.057Z,22.08
2023-03-16T00:11:18.642Z,22.07
2023-03-16T00:13:48.592Z,22.08
2023-03-16T00:16:20.961Z,22.08
2023-03-16T00:18:51.763Z,22.07
2023-03-16T00:21:22.321Z,22.06
2023-03-16T00:23:53.844Z,22.05
2023-03-16T00:26:24.499Z,22.03
2023-03-16T00:28:55.370Z,22.00
2023-03-16T00:31:27.938Z,22.00
2023-03-16T00:33:57.947Z,21.97
2023-03-16T00:36:28.191Z,21.96
2023-03-16T00:38:59.011Z,21.95
2023-03-16T00:41:28.882Z,21.95
2023-03-16T00:44:02.850Z,21.95
2023-03-16T00:46:38.847Z,21.94
2023-03-16T00:49:16.820Z,21.94
2023-03-16T00:51:49.215Z,21.94
2023-03-16T00:54:20.525Z,21.92
2023-03-16T00:56:51.765Z,21.93
2023-03-16T00:59:22.464Z,21.92
2023-03-16T01:01:55.231Z,21.91
2023-03-16T01:04:26.346Z,21.89
2023-03-16T01:06:56.866Z,21.90
2023-03-16T01:09:27.355Z,21.89
2023-03-16T01:11:57.041Z,21.90
2023-03-16T01:14:27.636Z,21.89
2023-03-16T01:17:00.362Z,21.89
2023-03-16T01:19:36.388Z,21.89
2023-03-16T01:22:07.234Z,21.88
2023-03-16T01:24:38.296Z,21.87
2023-03-16T01:27:09.346Z,21.87
2023-03-16T01:29:40.380Z,21.86
2023-03-16T01:32:13.220Z,21.85
2023-03-16T01:34:43.928Z,21.85
2023-03-16T01:37:14.305Z,21.85
2023-03-16T01:39:53.216Z,21.85
2023-03-16T01:42:24.546Z,21.85
2023-03-16T01:45:02.079Z,21.85
2023-03-16T01:47:38.599Z,21.86
2023-03-16T01:50:09.876Z,21.86
2023-03-16T01:52:42.731Z,21.84
2023-03-16T01:55:15.923Z,21.83
2023-03-16T01:57:50.225Z,21.82
2023-03-16T02:00:25.316Z,21.81
2023-03-16T02:03:02.666Z,21.81
2023-03-16T02:05:42.668Z,21.80
2023-03-16T02:08:14.771Z,21.79
2023-03-16T02:10:47.818Z,21.79
2023-03-16T02:13:19.247Z,21.79
2023-03-16T02:15:49.795Z,21.78
2023-03-16T02:18:23.596Z,21.78
2023-03-16T02:21:05.719Z,21.78
2023-03-16T02:23:35.882Z,21.79
2023-03-16T02:26:17.271Z,21.79
2023-03-16T02:28:58.016Z,21.77
2023-03-16T02:31:30.967Z,21.77
2023-03-16T02:34:03.267Z,21.77
2023-03-16T02:36:36.099Z,21.77
2023-03-16T02:39:06.880Z,21.77
2023-03-16T02:41:37.535Z,21.76
2023-03-16T02:44:16.570Z,21.77
2023-03-16T02:47:02.691Z,21.74
2023-03-16T02:49:39.324Z,21.73
2023-03-16T02:52:10.638Z,21.71
2023-03-16T02:54:41.998Z,21.68
2023-03-16T02:57:12.979Z,21.67
2023-03-16T02:59:43.058Z,21.65
2023-03-16T03:02:15.870Z,21.65
2023-03-16T03:04:47.167Z,21.64
2023-03-16T03:07:19.069Z,21.63
2023-03-16T03:09:49.558Z,21.64
2023-03-16T03:12:20.165Z,21.63
2023-03-16T03:14:50.651Z,21.62
2023-03-16T03:17:30.598Z,21.62
2023-03-16T03:20:02.827Z,21.62
2023-03-16T03:22:32.730Z,21.61
2023-03-16T03:25:03.340Z,21.60
2023-03-16T03:27:33.675Z,21.59
2023-03-16T03:30:04.478Z,21.59
2023-03-16T03:32:37.243Z,21.58
2023-03-16T03:35:09.094Z,21.58
2023-03-16T03:37:39.460Z,21.58
2023-03-16T03:40:13.869Z,21.58
2023-03-16T03:42:46.833Z,21.57
2023-03-16T03:45:18.987Z,21.56
2023-03-16T03:47:51.605Z,21.56
2023-03-16T03:50:22.311Z,21.57
2023-03-16T03:52:53.031Z,21.56
2023-03-16T03:55:23.793Z,21.57
2023-03-16T03:57:54.337Z,21.57
2023-03-16T04:00:25.164Z,21.57
2023-03-16T04:02:57.783Z,21.57
2023-03-16T04:05:28.892Z,21.55
2023-03-16T04:07:59.068Z,21.53
2023-03-16T04:10:31.782Z,21.53
2023-03-16T04:13:02.885Z,21.52
2023-03-16T04:15:34.957Z,21.52
2023-03-16T04:18:07.123Z,21.52
2023-03-16T04:20:38.447Z,21.52
2023-03-16T04:23:09.532Z,21.50
2023-03-16T04:25:40.953Z,21.48
2023-03-16T04:28:11.394Z,21.46
2023-03-16T04:30:43.456Z,21.47
2023-03-16T04:33:15.588Z,21.45
2023-03-16T04:35:47.170Z,21.45
2023-03-16T04:38:17.569Z,21.45
2023-03-16T04:40:48.234Z,21.47
2023-03-16T04:43:18.876Z,21.48
2023-03-16T04:45:49.412Z,21.49
2023-03-16T04:48:21.452Z,21.51
2023-03-16T04:50:52.002Z,21.52
2023-03-16T04:53:22.651Z,21.56
2023-03-16T04:55:53.443Z,21.61
2023-03-16T04:58:24.876Z,21.63
2023-03-16T05:00:55.819Z,21.68
2023-03-16T05:03:28.315Z,21.75
2023-03-16T05:05:58.848Z,21.81
2023-03-16T05:08:29.723Z,21.87
2023-03-16T05:11:00.730Z,21.93
2023-03-16T05:13:31.229Z,22.00
2023-03-16T05:16:02.221Z,22.07
2023-03-16T05:18:35.202Z,22.14
2023-03-16T05:21:05.270Z,22.22
2023-03-16T05:23:35.755Z,22.31
2023-03-16T05:26:06.031Z,22.39
2023-03-16T05:28:36.472Z,22.46
2023-03-16T05:31:06.805Z,22.53
2023-03-16T05:33:39.114Z,22.60
2023-03-16T05:36:10.731Z,22.67
2023-03-16T05:38:41.452Z,22.75
2023-03-16T05:41:12.111Z,22.82
2023-03-16T05:43:42.682Z,22.89
2023-03-16T05:46:14.140Z,22.97
2023-03-16T05:48:46.422Z,23.04
2023-03-16T05:51:17.621Z,23.11
2023-03-16T05:53:48.920Z,23.17
2023-03-16T05:56:19.272Z,23.26
2023-03-16T05:58:49.622Z,23.35
2023-03-16T06:01:20.672Z,23.44
2023-03-16T06:03:54.296Z,23.54
2023-03-16T06:06:25.677Z,23.63
2023-03-16T06:08:55.676Z,23.71
2023-03-16T06:11:26.176Z,23.80
2023-03-16T06:13:58.669Z,23.89
2023-03-16T06:16:28.798Z,23.97
2023-03-16T06:19:01.732Z,24.05
2023-03-16T06:21:32.001Z,24.15
2023-03-16T06:24:02.837Z,24.22
2023-03-16T06:26:32.748Z,24.31
2023-03-16T06:29:03.081Z,24.40
2023-03-16T06:31:34.688Z,24.47
2023-03-16T06:34:06.634Z,24.56
2023-03-16T06:36:36.510Z,24.63
2023-03-16T06:39:07.043Z,24.70
2023-03-16T06:41:38.588Z,24.77
2023-03-16T06:44:09.522Z,24.84
2023-03-16T06:46:40.146Z,24.94
2023-03-16T06:49:11.863Z,25.01
2023-03-16T06:51:42.334Z,25.08
2023-03-16T06:54:12.679Z,25.16
2023-03-16T06:56:44.768Z,25.24
2023-03-16T06:59:16.704Z,25.34
2023-03-16T07:01:47.345Z,25.40
2023-03-16T07:04:20.268Z,25.47
2023-03-16T07:06:52.047Z,25.53
2023-03-16T07:09:22.377Z,25.59
2023-03-16T07:11:53.124Z,25.65
2023-03-16T07:14:25.222Z,25.72
2023-03-16T07:16:55.454Z,25.78
2023-03-16T07:19:27.422Z,25.88
2023-03-16T07:21:57.163Z,25.98
2023-03-16T07:24:27.629Z,26.04
2023-03-16T07:26:58.149Z,26.10
2023-03-16T07:29:28.936Z,26.18
2023-03-16T07:32:00.174Z,26.25
2023-03-16T07:34:32.007Z,26.32
2023-03-16T07:37:02.319Z,26.40
2023-03-16T07:39:32.637Z,26.49
2023-03-16T07:42:03.143Z,26.56
2023-03-16T07:44:34.491Z,26.63
2023-03-16T07:47:05.558Z,26.71
2023-03-16T07:49:38.003Z,26.79
2023-03-16T07:52:08.801Z,26.89
2023-03-16T07:54:39.231Z,26.98
2023-03-16T07:57:09.890Z,27.05
2023-03-16T07:59:40.322Z,27.14
2023-03-16T08:02:15.153Z,27.21
2023-03-16T08:04:49.568Z,27.29
2023-03-16T08:07:20.311Z,27.36
2023-03-16T08:09:51.816Z,27.43
2023-03-16T08:12:22.776Z,27.50
2023-03-16T08:14:52.984Z,27.56
2023-03-16T08:17:23.492Z,27.61
2023-03-16T08:19:56.137Z,27.67
2023-03-16T08:22:26.826Z,27.70
2023-03-16T08:24:57.763Z,27.76
2023-03-16T08:27:29.598Z,27.82
2023-03-16T08:30:04.995Z,27.89
2023-03-16T08:32:36.387Z,27.94
2023-03-16T08:35:11.165Z,27.97
2023-03-16T08:37:41.192Z,27.99
2023-03-16T08:40:14.371Z,28.04
2023-03-16T08:42:45.566Z,28.10
2023-03-16T08:45:16.102Z,28.15
2023-03-16T08:47:46.832Z,28.21
2023-03-16T08:50:20.584Z,28.25
2023-03-16T08:52:51.368Z,28.29
2023-03-16T08:55:22.404Z,28.33
2023-03-16T08:57:53.451Z,28.37
2023-03-16T09:00:25.474Z,28.41
2023-03-16T09:02:56.092Z,28.44
2023-03-16T09:05:28.726Z,28.48
2023-03-16T09:07:59.610Z,28.50
2023-03-16T09:10:32.785Z,28.53
2023-03-16T09:13:03.251Z,28.56
2023-03-16T09:15:34.097Z,28.60
2023-03-16T09:18:04.841Z,28.62
2023-03-16T09:20:37.402Z,28.64
2023-03-16T09:23:08.314Z,28.64
2023-03-16T09:25:38.991Z,28.66
2023-03-16T09:28:09.010Z,28.67
2023-03-16T09:30:40.521Z,28.68
2023-03-16T09:33:11.503Z,28.68
2023-03-16T09:35:44.098Z,28.66
2023-03-16T09:38:14.264Z,28.65
2023-03-16T09:40:46.940Z,28.66
2023-03-16T09:43:43.614Z,28.65
2023-03-16T09:46:23.899Z,28.64
2023-03-16T09:48:56.350Z,28.64
2023-03-16T09:51:40.616Z,28.66
2023-03-16T09:54:26.894Z,28.68
2023-03-16T09:56:59.809Z,28.71
2023-03-16T09:59:30.723Z,28.75
2023-03-16T10:02:36.114Z,28.74
2023-03-16T10:05:12.702Z,28.75
2023-03-16T10:08:00.621Z,28.74
2023-03-16T10:10:55.764Z,28.68
2023-03-16T10:13:39.163Z,28.64
2023-03-16T10:16:17.763Z,28.63
2023-03-16T10:18:52.747Z,28.63
2023-03-16T10:21:25.098Z,28.64
2023-03-16T10:24:04.638Z,28.65
2023-03-16T10:26:44.678Z,28.67
2023-03-16T10:29:17.016Z,28.66
2023-03-16T10:31:47.745Z,28.66
2023-03-16T10:34:18.332Z,28.68
2023-03-16T10:36:49.371Z,28.70
2023-03-16T10:39:21.525Z,28.73
2023-03-16T10:41:59.417Z,28.74
2023-03-16T10:44:32.453Z,28.72
2023-03-16T10:47:06.712Z,28.68
2023-03-16T10:49:42.712Z,28.67
2023-03-16T10:52:21.038Z,28.68
2023-03-16T10:54:59.324Z,28.68
2023-03-16T10:57:34.256Z,28.68
2023-03-16T11:00:21.650Z,28.67
2023-03-16T11:02:54.671Z,28.64
2023-03-16T11:05:35.154Z,28.63
2023-03-16T11:08:12.520Z,28.62
2023-03-16T11:10:55.955Z,28.61
2023-03-16T11:13:35.668Z,28.60
2023-03-16T11:16:24.289Z,28.58
2023-03-16T11:18:59.897Z,28.55
2023-03-16T11:21:42.884Z,28.55
2023-03-16T11:24:25.712Z,28.54
2023-03-16T11:27:03.813Z,28.56
2023-03-16T11:29:51.722Z,28.56
2023-03-16T11:32:29.050Z,28.56
2023-03-16T11:34:59.085Z,28.57
2023-03-16T11:37:49.587Z,28.58
2023-03-16T11:40:38.868Z,28.59
2023-03-16T11:43:45.376Z,28.58
2023-03-16T11:46:23.169Z,28.58
2023-03-16T11:49:34.131Z,28.58
2023-03-16T11:52:17.897Z,28.60
2023-03-16T11:55:07.849Z,28.61
2023-03-16T11:57:56.571Z,28.62
2023-03-16T12:00:47.260Z,28.63
2023-03-16T12:04:02.477Z,28.62
2023-03-16T12:07:03.361Z,28.62
2023-03-16T12:10:14.261Z,28.64
2023-03-16T12:13:22.602Z,28.62
2023-03-16T12:16:00.063Z,28.59
2023-03-16T12:18:46.199Z,28.61
2023-03-16T12:21:24.868Z,28.61
2023-03-16T12:23:57.878Z,28.61
2023-03-16T12:26:33.943Z,28.63
2023-03-16T12:29:21.468Z,28.63
2023-03-16T12:32:04.868Z,28.61
2023-03-16T12:34:44.012Z,28.61
2023-03-16T12:37:36.453Z,28.62
2023-03-16T12:40:34.183Z,28.60
2023-03-16T12:43:38.146Z,28.59
2023-03-16T12:46:14.798Z,28.57
2023-03-16T12:48:54.638Z,28.55
2023-03-16T12:51:37.144Z,28.53
2023-03-16T12:54:09.297Z,28.50
2023-03-16T12:56:49.355Z,28.48
2023-03-16T12:59:23.169Z,28.43
2023-03-16T13:02:01.228Z,28.40
2023-03-16T13:04:41.146Z,28.36
2023-03-16T13:07:20.684Z,28.32
2023-03-16T13:09:56.390Z,28.30
2023-03-16T13:12:31.975Z,28.26
2023-03-16T13:15:02.895Z,28.22
2023-03-16T13:17:37.231Z,28.20
2023-03-16T13:20:31.770Z,28.15
2023-03-16T13:23:24.459Z,28.10
2023-03-16T13:26:18.071Z,28.06
2023-03-16T13:28:55.247Z,28.01
2023-03-16T13:31:35.432Z,27.99
2023-03-16T13:34:09.463Z,27.97
2023-03-16T13:36:41.461Z,27.96
2023-03-16T13:39:21.239Z,27.92
2023-03-16T13:42:17.197Z,27.88
2023-03-16T13:44:48.411Z,27.84
2023-03-16T13:47:21.737Z,27.82
2023-03-16T13:49:56.748Z,27.79
2023-03-16T13:52:32.636Z,27.76
2023-03-16T13:55:08.393Z,27.73
2023-03-16T13:57:43.345Z,27.70
2023-03-16T14:00:21.591Z,27.68
2023-03-16T14:02:56.664Z,27.65
2023-03-16T14:05:30.970Z,27.62
2023-03-16T14:08:05.291Z,27.61
2023-03-16T14:10:40.719Z,27.57
2023-03-16T14:13:26.194Z,27.54
2023-03-16T14:15:58.052Z,27.51
2023-03-16T14:18:37.698Z,27.49
2023-03-16T14:21:12.522Z,27.45
2023-03-16T14:23:47.997Z,27.41
2023-03-16T14:26:21.357Z,27.37
2023-03-16T14:29:07.352Z,27.35
2023-03-16T14:31:41.326Z,27.31
2023-03-16T14:34:30.843Z,27.28
2023-03-16T14:37:12.297Z,27.26
2023-03-16T14:39:46.160Z,27.23
2023-03-16T14:42:29.727Z,27.21
2023-03-16T14:45:02.597Z,27.18
2023-03-16T14:47:43.756Z,27.16
2023-03-16T14:50:21.014Z,27.13
2023-03-16T14:52:52.603Z,27.09
2023-03-16T14:55:26.284Z,27.07
2023-03-16T14:57:57.926Z,27.03
2023-03-16T15:00:29.429Z,27.01
2023-03-16T15:03:08.480Z,26.98
2023-03-16T15:05:42.767Z,26.95
2023-03-16T15:08:22.086Z,26.94
2023-03-16T15:10:54.758Z,26.92
2023-03-16T15:13:53.438Z,26.89
2023-03-16T15:16:24.820Z,26.87
2023-03-16T15:18:54.940Z,26.86
2023-03-16T15:21:44.421Z,26.85
2023-03-16T15:24:15.486Z,26.83
2023-03-16T15:26:48.524Z,26.81
2023-03-16T15:29:20.160Z,26.80
2023-03-16T15:31:53.394Z,26.78
2023-03-16T15:34:24.941Z,26.78
2023-03-16T15:36:55.517Z,26.76
2023-03-16T15:39:28.428Z,26.76
2023-03-16T15:42:01.812Z,26.75
2023-03-16T15:44:32.154Z,26.73
2023-03-16T15:47:03.561Z,26.71
2023-03-16T15:49:45.098Z,26.69
2023-03-16T15:52:34.489Z,26.67
2023-03-16T15:55:08.232Z,26.65
2023-03-16T15:57:40.807Z,26.65
2023-03-16T16:00:31.108Z,26.63
2023-03-16T16:03:03.341Z,26.60
2023-03-16T16:05:34.728Z,26.59
2023-03-16T16:08:04.823Z,26.58
2023-03-16T16:10:36.326Z,26.57
2023-03-16T16:13:07.731Z,26.56
2023-03-16T16:15:39.397Z,26.54
2023-03-16T16:18:30.957Z,26.52
2023-03-16T16:21:04.399Z,26.49
2023-03-16T16:23:37.477Z,26.46
2023-03-16T16:26:20.864Z,26.45
2023-03-16T16:28:53.358Z,26.41
2023-03-16T16:31:25.605Z,26.40
2023-03-16T16:33:56.641Z,26.38
2023-03-16T16:36:26.866Z,26.37
2023-03-16T16:38:57.672Z,26.35
2023-03-16T16:41:32.713Z,26.34
2023-03-16T16:44:08.756Z,26.31
2023-03-16T16:46:44.263Z,26.29
2023-03-16T16:49:20.083Z,26.27
2023-03-16T16:51:50.488Z,26.25
2023-03-16T16:54:24.053Z,26.23
2023-03-16T16:56:58.454Z,26.21
2023-03-16T16:59:36.298Z,26.19
2023-03-16T17:02:25.645Z,26.16
2023-03-16T17:04:57.310Z,26.12
2023-03-16T17:07:28.236Z,26.10
2023-03-16T17:09:58.520Z,26.08
2023-03-16T17:12:30.021Z,26.07
2023-03-16T17:15:02.123Z,26.05
2023-03-16T17:17:32.910Z,26.04
2023-03-16T17:20:06.332Z,26.03
2023-03-16T17:22:36.974Z,26.01
2023-03-16T17:25:08.648Z,26.00
2023-03-16T17:27:39.474Z,25.99
2023-03-16T17:30:23.893Z,25.97
2023-03-16T17:32:55.315Z,25.95
2023-03-16T17:35:26.247Z,25.94
2023-03-16T17:37:57.656Z,25.92
2023-03-16T17:40:29.071Z,25.91
2023-03-16T17:42:59.588Z,25.89
2023-03-16T17:45:31.894Z,25.88
2023-03-16T17:48:02.829Z,25.86
2023-03-16T17:50:34.353Z,25.84
2023-03-16T17:53:05.150Z,25.81
2023-03-16T17:55:36.061Z,25.79
2023-03-16T17:58:06.353Z,25.75
2023-03-16T18:00:40.027Z,25.73
2023-03-16T18:03:17.947Z,25.67
2023-03-16T18:05:48.827Z,25.63
2023-03-16T18:08:25.944Z,25.59
2023-03-16T18:11:00.089Z,25.55
2023-03-16T18:13:35.694Z,25.50
2023-03-16T18:16:10.563Z,25.46
2023-03-16T18:18:44.642Z,25.42
2023-03-16T18:21:22.098Z,25.37
2023-03-16T18:23:53.420Z,25.32
2023-03-16T18:26:25.282Z,25.27
2023-03-16T18:28:55.973Z,25.24
2023-03-16T18:31:31.442Z,25.20
2023-03-16T18:34:05.623Z,25.16
2023-03-16T18:36:38.813Z,25.12
2023-03-16T18:39:17.716Z,25.07
2023-03-16T18:41:48.487Z,25.03
2023-03-16T18:44:22.542Z,25.00
2023-03-16T18:47:03.595Z,24.96
2023-03-16T18:49:38.088Z,24.92
2023-03-16T18:52:21.319Z,24.89
2023-03-16T18:54:53.406Z,24.87
2023-03-16T18:57:25.506Z,24.89
2023-03-16T18:59:56.715Z,24.91
2023-03-16T19:02:45.716Z,24.94
2023-03-16T19:05:20.541Z,24.95
2023-03-16T19:07:54.352Z,24.94
2023-03-16T19:10:29.899Z,24.92
2023-03-16T19:13:01.798Z,24.89
2023-03-16T19:15:36.081Z,24.88
2023-03-16T19:18:08.373Z,24.90
2023-03-16T19:20:38.516Z,24.90
2023-03-16T19:23:18.748Z,24.93
2023-03-16T19:25:49.722Z,24.94
2023-03-16T19:28:34.166Z,24.97
2023-03-16T19:31:08.241Z,24.98
2023-03-16T19:33:40.879Z,24.99
2023-03-16T19:36:18.924Z,25.01
2023-03-16T19:38:50.862Z,25.02
2023-03-16T19:41:27.694Z,25.02
2023-03-16T19:44:00.942Z,25.03
2023-03-16T19:46:33.396Z,25.02
2023-03-16T19:49:10.296Z,25.03
2023-03-16T19:51:40.751Z,25.03
2023-03-16T19:54:22.525Z,25.03
2023-03-16T19:56:54.088Z,25.03
2023-03-16T19:59:33.868Z,25.01
2023-03-16T20:02:04.572Z,25.00
2023-03-16T20:04:38.470Z,25.01
2023-03-16T20:07:17.420Z,25.01
2023-03-16T20:09:48.153Z,24.99
2023-03-16T20:12:26.458Z,25.00
2023-03-16T20:14:58.340Z,24.98
2023-03-16T20:17:31.112Z,24.98
2023-03-16T20:20:03.889Z,24.96
2023-03-16T20:22:34.359Z,24.95
2023-03-16T20:25:05.699Z,24.94
2023-03-16T20:27:35.869Z,24.93
2023-03-16T20:30:07.316Z,24.93
2023-03-16T20:32:40.421Z,24.92
2023-03-16T20:35:23.757Z,24.92
2023-03-16T20:37:54.992Z,24.91
2023-03-16T20:40:26.284Z,24.90
2023-03-16T20:42:56.728Z,24.88
2023-03-16T20:45:31.289Z,24.86
2023-03-16T20:48:02.245Z,24.85
2023-03-16T20:50:34.644Z,24.85
2023-03-16T20:53:04.877Z,24.83
2023-03-16T20:55:35.343Z,24.83
2023-03-16T20:58:08.209Z,24.82
2023-03-16T21:00:42.323Z,24.81
2023-03-16T21:03:21.149Z,24.79
2023-03-16T21:05:54.528Z,24.78
2023-03-16T21:08:25.082Z,24.77
2023-03-16T21:10:58.032Z,24.76
2023-03-16T21:13:33.883Z,24.74
2023-03-16T21:16:09.175Z,24.72
2023-03-16T21:18:39.717Z,24.70
2023-03-16T21:21:16.928Z,24.69
2023-03-16T21:23:47.767Z,24.67
2023-03-16T21:26:22.293Z,24.66
2023-03-16T21:28:58.983Z,24.64
2023-03-16T21:31:29.991Z,24.61
2023-03-16T21:34:00.988Z,24.58
2023-03-16T21:36:37.567Z,24.55
2023-03-16T21:39:22.686Z,24.51
2023-03-16T21:41:53.153Z,24.47
2023-03-16T21:44:23.833Z,24.44
2023-03-16T21:46:54.431Z,24.41
2023-03-16T21:49:25.919Z,24.39
2023-03-16T21:51:58.652Z,24.37
2023-03-16T21:54:28.238Z,24.37
2023-03-16T21:56:59.939Z,24.37
2023-03-16T21:59:30.531Z,24.36
2023-03-16T22:02:02.177Z,24.37
2023-03-16T22:04:37.426Z,24.38
2023-03-16T22:07:14.416Z,24.39
2023-03-16T22:09:45.630Z,24.39
2023-03-16T22:12:16.579Z,24.40
2023-03-16T22:14:47.004Z,24.42
2023-03-16T22:17:24.676Z,24.43
2023-03-16T22:19:55.169Z,24.44
2023-03-16T22:22:27.774Z,24.45
2023-03-16T22:24:57.888Z,24.46
2023-03-16T22:27:28.351Z,24.47
2023-03-16T22:29:58.332Z,24.47
2023-03-16T22:32:29.086Z,24.49
2023-03-16T22:35:00.269Z,24.49
2023-03-16T22:37:32.994Z,24.49
2023-03-16T22:40:04.813Z,24.49
2023-03-16T22:42:38.652Z,24.49
2023-03-16T22:45:22.579Z,24.47
2023-03-16T22:47:53.439Z,24.44
2023-03-16T22:50:26.124Z,24.41
2023-03-16T22:53:03.412Z,24.37
2023-03-16T22:55:38.033Z,24.35
2023-03-16T22:58:16.186Z,24.32
2023-03-16T23:00:47.376Z,24.30
2023-03-16T23:03:22.433Z,24.30
2023-03-16T23:05:53.048Z,24.28
2023-03-16T23:08:27.307Z,24.28
2023-03-16T23:10:57.460Z,24.29
2023-03-16T23:13:29.421Z,24.27
2023-03-16T23:15:59.727Z,24.27
2023-03-16T23:18:29.831Z,24.27
2023-03-16T23:21:00.314Z,24.26
2023-03-16T23:23:32.276Z,24.25
2023-03-16T23:26:02.639Z,24.24
2023-03-16T23:28:33.419Z,24.24
2023-03-16T23:31:03.708Z,24.23
2023-03-16T23:33:34.580Z,24.24
2023-03-16T23:36:05.006Z,24.21
2023-03-16T23:38:37.292Z,24.21
2023-03-16T23:41:08.054Z,24.20
2023-03-16T23:43:38.589Z,24.20
2023-03-16T23:46:09.439Z,24.20
2023-03-16T23:48:41.911Z,24.21
2023-03-16T23:51:22.841Z,24.20
2023-03-16T23:53:54.817Z,24.20
2023-03-16T23:56:26.648Z,24.21
2023-03-16T23:58:58.311Z,24.21
